Time;durP1;ratioP1;P1;durP2;ratioP2;P2;SDS_P1;SDS_P2;PMS_P1;PMS_P2;Temp;Humidity;BMP_temperature;BMP_pressure;BME280_temperature;BME280_humidity;BME280_pressure;Samples;Min_cycle;Max_cycle;Signal;HPM_P1;HPM_P2
2021/03/22 00:01:19;;;;;;;4.47;2.00;;;5.70;99.90;;;;;;4905721;29;20257;-93
2021/03/22 00:03:53;;;;;;;2.90;2.00;;;5.70;99.90;;;;;;4891542;29;20232;-93
2021/03/22 00:06:32;;;;;;;6.07;2.57;;;5.80;99.90;;;;;;4912889;29;20218;-93
2021/03/22 00:09:04;;;;;;;4.53;2.20;;;5.80;99.90;;;;;;4907452;29;20217;-93
2021/03/22 00:11:34;;;;;;;2.70;2.13;;;5.80;99.90;;;;;;4906270;29;20655;-92
2021/03/22 00:14:05;;;;;;;3.50;2.00;;;5.80;99.90;;;;;;4906635;29;20217;-91
2021/03/22 00:16:35;;;;;;;3.43;2.13;;;5.80;99.90;;;;;;4911910;29;20210;-92
2021/03/22 00:19:09;;;;;;;4.97;2.50;;;5.80;99.90;;;;;;4916632;29;20396;-92
2021/03/22 00:22:12;;;;;;;2.87;2.00;;;5.80;99.90;;;;;;4923578;29;20193;-92
2021/03/22 00:27:42;;;;;;;4.40;2.03;;;5.80;99.90;;;;;;4921359;29;20194;-91
2021/03/22 00:30:23;;;;;;;3.70;2.00;;;5.80;99.90;;;;;;4921309;29;20202;-89
2021/03/22 00:32:53;;;;;;;2.60;2.03;;;5.80;99.90;;;;;;4913811;29;20312;-92
2021/03/22 00:35:26;;;;;;;4.47;2.17;;;5.90;99.90;;;;;;4910673;29;20241;-93
2021/03/22 00:37:59;;;;;;;5.67;2.27;;;5.80;99.90;;;;;;4909393;29;20206;-91
2021/03/22 00:40:35;;;;;;;4.00;2.63;;;5.80;99.90;;;;;;4907951;29;20206;-93
2021/03/22 00:43:07;;;;;;;3.13;1.97;;;5.80;99.90;;;;;;4904849;29;20828;-92
2021/03/22 00:45:56;;;;;;;4.03;1.97;;;5.70;99.90;;;;;;4904774;29;20712;-92
2021/03/22 00:48:28;;;;;;;3.27;1.90;;;5.80;99.90;;;;;;4904817;29;20237;-92
2021/03/22 00:51:03;;;;;;;4.03;2.20;;;5.70;99.90;;;;;;4905379;29;20233;-93
2021/03/22 00:53:34;;;;;;;4.30;1.90;;;5.70;99.90;;;;;;4904247;29;20221;-93
2021/03/22 00:56:10;;;;;;;3.97;2.30;;;5.70;99.90;;;;;;4903872;29;20214;-94
2021/03/22 00:58:44;;;;;;;2.10;1.60;;;5.60;99.90;;;;;;4904514;29;20261;-94
2021/03/22 01:01:14;;;;;;;3.43;2.00;;;5.50;99.90;;;;;;4904886;29;20245;-94
2021/03/22 01:03:44;;;;;;;3.07;1.90;;;5.60;99.90;;;;;;4903094;29;20221;-94
2021/03/22 01:06:20;;;;;;;3.03;2.00;;;5.50;99.90;;;;;;4904973;29;20582;-94
2021/03/22 01:08:53;;;;;;;3.27;1.97;;;5.50;99.90;;;;;;4900707;29;20232;-93
2021/03/22 01:11:26;;;;;;;3.80;2.50;;;5.50;99.90;;;;;;4901616;29;20663;-92
2021/03/22 01:14:01;;;;;;;4.10;2.20;;;5.50;99.90;;;;;;4903826;29;20221;-91
2021/03/22 01:16:34;;;;;;;2.10;1.70;;;5.50;99.90;;;;;;4903501;29;20217;-92
2021/03/22 01:19:10;;;;;;;2.73;1.97;;;5.50;99.90;;;;;;4902691;29;20241;-92
2021/03/22 01:21:44;;;;;;;1.90;1.57;;;5.50;99.90;;;;;;4906580;29;20189;-93
2021/03/22 01:24:16;;;;;;;2.67;1.47;;;5.40;99.90;;;;;;4906155;29;20217;-90
2021/03/22 01:26:51;;;;;;;2.23;1.70;;;5.40;99.90;;;;;;4904488;29;20265;-92
2021/03/22 01:29:26;;;;;;;2.67;1.87;;;5.30;99.90;;;;;;4907829;29;20720;-92
2021/03/22 01:31:59;;;;;;;2.13;1.80;;;5.30;99.90;;;;;;4914147;29;20225;-92
2021/03/22 01:34:32;;;;;;;3.47;1.67;;;5.30;99.90;;;;;;4915630;29;20216;-92
2021/03/22 01:37:03;;;;;;;2.93;1.97;;;5.30;99.90;;;;;;4921517;29;20650;-92
2021/03/22 01:39:36;;;;;;;3.27;1.70;;;5.30;99.90;;;;;;4920593;29;20210;-92
2021/03/22 01:42:44;;;;;;;2.27;1.80;;;5.30;99.90;;;;;;4921388;29;20200;-93
2021/03/22 01:45:16;;;;;;;2.30;1.63;;;5.30;99.90;;;;;;4920421;29;20210;-93
2021/03/22 01:47:47;;;;;;;3.13;1.87;;;5.30;99.90;;;;;;4919516;29;20204;-91
2021/03/22 01:53:19;;;;;;;2.63;1.70;;;5.30;99.90;;;;;;4912945;29;20250;-93
2021/03/22 01:55:49;;;;;;;2.20;1.77;;;5.30;99.90;;;;;;4911638;29;20675;-94
2021/03/22 01:58:23;;;;;;;2.50;1.50;;;5.30;99.90;;;;;;4912341;29;20388;-94
2021/03/22 02:00:53;;;;;;;2.70;1.60;;;5.20;99.90;;;;;;4913322;29;20229;-94
2021/03/22 02:03:24;;;;;;;1.87;1.27;;;5.30;99.90;;;;;;4914291;29;20206;-93
2021/03/22 02:05:57;;;;;;;2.07;1.53;;;5.20;99.90;;;;;;4914096;29;20233;-91
2021/03/22 02:08:33;;;;;;;1.67;1.33;;;5.20;99.90;;;;;;4915442;29;20216;-94
2021/03/22 02:11:04;;;;;;;1.40;1.30;;;5.20;99.90;;;;;;4914770;29;20331;-93
2021/03/22 02:13:39;;;;;;;2.00;1.40;;;5.20;99.90;;;;;;4913030;29;20317;-91
2021/03/22 02:16:17;;;;;;;1.67;1.23;;;5.20;99.90;;;;;;4913338;29;20685;-93
2021/03/22 02:19:02;;;;;;;1.60;1.50;;;5.20;99.90;;;;;;4901000;29;20217;-93
2021/03/22 02:22:16;;;;;;;1.60;1.30;;;5.20;99.90;;;;;;4895216;29;20221;-92
2021/03/22 02:25:14;;;;;;;2.37;1.30;;;5.20;99.90;;;;;;4881230;29;20210;-93
2021/03/22 02:28:39;;;;;;;2.03;1.17;;;5.20;99.90;;;;;;4884803;29;20229;-93
2021/03/22 02:32:04;;;;;;;2.00;1.37;;;5.20;99.90;;;;;;4898242;29;20229;-91
2021/03/22 02:34:52;;;;;;;1.90;1.47;;;5.20;99.90;;;;;;4898177;29;20212;-91
2021/03/22 02:37:39;;;;;;;2.03;1.43;;;5.20;99.90;;;;;;4905418;29;20264;-92
2021/03/22 02:40:33;;;;;;;2.20;1.17;;;5.20;99.90;;;;;;4906349;29;20633;-94
2021/03/22 02:43:15;;;;;;;3.73;1.00;;;5.20;99.90;;;;;;4920326;29;20253;-93
2021/03/22 02:46:01;;;;;;;1.80;1.40;;;5.30;99.90;;;;;;4926850;29;20265;-94
2021/03/22 02:51:52;;;;;;;1.47;1.37;;;5.20;99.90;;;;;;6005029;23;21594;-96
2021/03/22 02:54:37;;;;;;;2.90;1.03;;;5.30;99.90;;;;;;4877585;29;20237;-94
2021/03/22 02:57:16;;;;;;;1.40;1.13;;;5.30;99.90;;;;;;4871005;29;20275;-93
2021/03/22 02:59:55;;;;;;;1.60;1.17;;;5.30;99.90;;;;;;4870178;29;20214;-94
2021/03/22 03:02:29;;;;;;;1.97;1.00;;;5.30;99.90;;;;;;4869729;29;20211;-93
2021/03/22 03:05:15;;;;;;;3.00;1.10;;;5.30;99.90;;;;;;4868676;29;20215;-93
2021/03/22 03:07:59;;;;;;;2.00;1.20;;;5.30;99.90;;;;;;4872679;29;20235;-95
2021/03/22 03:10:31;;;;;;;1.47;0.97;;;5.30;99.90;;;;;;4870340;29;20278;-94
2021/03/22 03:16:08;;;;;;;1.90;1.30;;;5.30;99.90;;;;;;4870854;29;20202;-93
2021/03/22 03:18:41;;;;;;;1.97;1.30;;;5.40;99.90;;;;;;4869270;29;20629;-94
2021/03/22 03:21:22;;;;;;;2.70;1.50;;;5.40;99.90;;;;;;4872738;29;20241;-94
2021/03/22 03:24:03;;;;;;;1.13;0.97;;;5.40;99.90;;;;;;4868527;29;20210;-94
2021/03/22 03:26:34;;;;;;;1.33;0.90;;;5.40;99.90;;;;;;4869007;29;20259;-92
2021/03/22 03:29:09;;;;;;;3.17;1.20;;;5.40;99.90;;;;;;4879704;29;20222;-92
2021/03/22 03:31:45;;;;;;;1.30;0.90;;;5.50;99.90;;;;;;4874792;29;20242;-93
2021/03/22 03:34:20;;;;;;;1.93;1.00;;;5.50;99.90;;;;;;4876502;29;20215;-91
2021/03/22 03:36:52;;;;;;;1.07;0.87;;;5.50;99.90;;;;;;4880934;29;20199;-93
2021/03/22 03:47:36;;;;;;;1.43;0.83;;;5.60;99.90;;;;;;5135506;23;20312;-91
2021/03/22 03:50:11;;;;;;;2.20;0.90;;;5.60;99.90;;;;;;4930660;29;20219;-92
2021/03/22 03:52:46;;;;;;;0.80;0.70;;;5.60;99.90;;;;;;4924940;29;20252;-92
2021/03/22 03:55:29;;;;;;;1.10;0.90;;;5.60;99.90;;;;;;4925938;29;20228;-92
2021/03/22 03:58:00;;;;;;;0.77;0.70;;;5.60;99.90;;;;;;5103249;23;20281;-93
2021/03/22 04:03:29;;;;;;;0.93;0.77;;;5.60;99.90;;;;;;5142236;23;20240;-92
2021/03/22 04:06:06;;;;;;;1.03;0.60;;;5.60;99.90;;;;;;4904272;29;20241;-93
2021/03/22 04:08:40;;;;;;;1.03;0.90;;;5.60;99.90;;;;;;4904906;29;20580;-92
2021/03/22 04:14:20;;;;;;;0.80;0.70;;;5.60;99.90;;;;;;5652426;23;20248;-93
2021/03/22 04:16:51;;;;;;;0.90;0.70;;;5.70;99.90;;;;;;4908251;29;20213;-92
2021/03/22 04:19:29;;;;;;;0.80;0.60;;;5.70;99.90;;;;;;4919978;29;20213;-93
2021/03/22 04:25:10;;;;;;;1.00;0.63;;;5.70;99.90;;;;;;4912495;29;20245;-93
2021/03/22 04:27:41;;;;;;;1.27;0.90;;;5.70;99.90;;;;;;4911524;29;20305;-93
2021/03/22 04:30:13;;;;;;;1.23;0.70;;;5.70;99.90;;;;;;4909861;29;20233;-93
2021/03/22 04:32:51;;;;;;;0.60;0.60;;;5.70;99.90;;;;;;4907830;29;20717;-92
2021/03/22 04:35:26;;;;;;;0.60;0.43;;;5.70;99.90;;;;;;4905810;29;20221;-94
2021/03/22 04:37:59;;;;;;;1.00;0.50;;;5.70;99.90;;;;;;4908565;29;20258;-94
2021/03/22 04:40:32;;;;;;;0.80;0.67;;;5.70;99.90;;;;;;4904741;29;20222;-93
2021/03/22 05:05:22;;;;;;;0.70;0.50;;;5.70;99.90;;;;;;5219264;23;20344;-94
2021/03/22 05:07:57;;;;;;;0.63;0.57;;;5.70;99.90;;;;;;4940723;29;20248;-93
2021/03/22 05:10:34;;;;;;;2.07;0.40;;;5.70;99.90;;;;;;4940898;29;20322;-92
2021/03/22 05:22:01;;;;;;;0.43;0.33;;;5.70;99.90;;;;;;4953100;23;20295;-94
2021/03/22 05:24:37;;;;;;;0.40;0.33;;;5.70;99.90;;;;;;4926754;29;20209;-92
2021/03/22 05:27:14;;;;;;;0.50;0.30;;;5.70;99.90;;;;;;4923130;29;20256;-92
2021/03/22 05:29:49;;;;;;;0.30;0.30;;;5.70;99.90;;;;;;4922888;29;20228;-94
2021/03/22 05:32:33;;;;;;;0.43;0.43;;;5.70;99.90;;;;;;4910759;29;20236;-92
2021/03/22 05:35:12;;;;;;;0.70;0.30;;;5.70;99.90;;;;;;4928884;29;20211;-95
2021/03/22 05:37:45;;;;;;;0.37;0.30;;;5.70;99.90;;;;;;4922367;29;20209;-93
2021/03/22 05:43:59;;;;;;;0.77;0.50;;;5.70;99.90;;;;;;4927778;29;20207;-94
2021/03/22 05:46:42;;;;;;;0.50;0.50;;;5.70;99.90;;;;;;4920464;29;20276;-92
2021/03/22 05:49:43;;;;;;;0.50;0.50;;;5.70;99.90;;;;;;4923761;29;20220;-92
2021/03/22 05:52:27;;;;;;;0.30;0.30;;;5.70;99.90;;;;;;4919668;29;20256;-92
2021/03/22 05:55:16;;;;;;;0.40;0.40;;;5.70;99.90;;;;;;4922505;29;20214;-92
2021/03/22 05:58:11;;;;;;;0.20;0.20;;;5.70;99.90;;;;;;4921813;29;20725;-94
2021/03/22 06:00:55;;;;;;;0.83;0.30;;;5.70;99.90;;;;;;4936444;29;20228;-94
2021/03/22 06:03:43;;;;;;;0.53;0.30;;;5.70;99.90;;;;;;4921780;29;20237;-94
2021/03/22 06:06:19;;;;;;;0.40;0.37;;;5.70;99.90;;;;;;4922206;29;20658;-94
2021/03/22 06:08:55;;;;;;;0.40;0.30;;;5.70;99.90;;;;;;4923434;29;20210;-94
2021/03/22 06:26:03;;;;;;;0.30;0.30;;;5.80;99.90;;;;;;5513054;23;20224;-92
2021/03/22 06:28:51;;;;;;;0.27;0.20;;;5.80;99.90;;;;;;5293856;23;20316;-91
2021/03/22 06:31:38;;;;;;;0.43;0.40;;;5.70;99.90;;;;;;4938976;29;20211;-91
2021/03/22 06:43:23;;;;;;;0.23;0.23;;;5.80;99.90;;;;;;5964418;23;20249;-93
2021/03/22 06:49:02;;;;;;;0.70;0.40;;;5.80;99.90;;;;;;4904587;29;20310;-93
2021/03/22 06:51:34;;;;;;;0.43;0.30;;;5.80;99.90;;;;;;4901630;29;20218;-91
2021/03/22 06:54:26;;;;;;;0.40;0.30;;;5.90;99.90;;;;;;4907609;29;20269;-93
2021/03/22 06:57:08;;;;;;;0.33;0.33;;;5.80;99.90;;;;;;4902521;29;20214;-92
2021/03/22 07:00:20;;;;;;;1.07;0.20;;;5.90;99.90;;;;;;4910576;29;20248;-93
2021/03/22 07:03:34;;;;;;;0.30;0.20;;;5.80;99.90;;;;;;5028543;23;20682;-91
2021/03/22 07:06:30;;;;;;;0.30;0.20;;;5.80;99.90;;;;;;5255604;23;20305;-94
2021/03/22 07:09:09;;;;;;;0.60;0.20;;;5.80;99.90;;;;;;4909862;29;20674;-94
2021/03/22 07:11:53;;;;;;;0.20;0.20;;;5.80;99.90;;;;;;4921210;29;20213;-92
2021/03/22 07:25:58;;;;;;;0.20;0.20;;;5.80;99.90;;;;;;5858686;23;20270;-94
2021/03/22 07:31:37;;;;;;;0.30;0.20;;;5.80;99.90;;;;;;5718530;23;20256;-93
2021/03/22 07:34:28;;;;;;;0.47;0.17;;;5.80;99.90;;;;;;4935140;29;20201;-92
2021/03/22 07:40:25;;;;;;;0.30;0.27;;;5.90;99.90;;;;;;4934411;29;20205;-92
2021/03/22 08:07:01;;;;;;;0.10;0.10;;;5.80;99.90;;;;;;4926423;29;20205;-93
2021/03/22 08:13:13;;;;;;;0.20;0.20;;;5.90;99.90;;;;;;4936910;29;20239;-93
2021/03/22 08:15:56;;;;;;;0.10;0.10;;;5.90;99.90;;;;;;4931873;29;20224;-92
2021/03/22 08:18:34;;;;;;;0.10;0.10;;;5.90;99.90;;;;;;4926043;29;20308;-94
2021/03/22 08:21:15;;;;;;;0.23;0.20;;;5.90;99.90;;;;;;4937572;29;20209;-93
2021/03/22 08:26:36;;;;;;;0.13;0.13;;;5.90;99.90;;;;;;4945891;23;20339;-93
2021/03/22 08:29:18;;;;;;;0.60;0.27;;;5.90;99.90;;;;;;4914132;29;20209;-92
2021/03/22 08:35:22;;;;;;;0.30;0.20;;;5.90;99.90;;;;;;4914684;29;20276;-93
2021/03/22 08:38:16;;;;;;;0.20;0.20;;;5.90;99.90;;;;;;4903213;29;20277;-93
2021/03/22 08:40:52;;;;;;;0.10;0.10;;;5.90;99.90;;;;;;4906702;29;20585;-92
2021/03/22 08:43:53;;;;;;;0.43;0.10;;;5.90;99.90;;;;;;4910971;29;20272;-95
2021/03/22 08:46:35;;;;;;;0.20;0.20;;;6.00;99.90;;;;;;4908633;29;20210;-94
2021/03/22 08:49:32;;;;;;;0.10;0.10;;;5.90;99.90;;;;;;4900359;29;20232;-93
2021/03/22 08:52:06;;;;;;;0.30;0.20;;;5.90;99.90;;;;;;4901999;29;20332;-93
2021/03/22 08:54:40;;;;;;;0.53;0.37;;;5.90;99.90;;;;;;4906272;29;20627;-93
2021/03/22 08:57:23;;;;;;;0.13;0.13;;;6.00;99.90;;;;;;4906613;29;20209;-95
2021/03/22 09:00:34;;;;;;;0.20;0.20;;;6.00;99.90;;;;;;4907436;29;20213;-94
2021/03/22 09:03:38;;;;;;;0.50;0.20;;;6.00;99.90;;;;;;4905269;29;20217;-93
2021/03/22 09:06:17;;;;;;;0.10;0.10;;;6.00;99.90;;;;;;4902422;29;20217;-92
2021/03/22 09:09:23;;;;;;;0.10;0.10;;;6.00;99.90;;;;;;4900468;29;20245;-92
2021/03/22 09:11:59;;;;;;;0.10;0.10;;;6.00;99.90;;;;;;4906158;29;20214;-93
2021/03/22 09:14:47;;;;;;;0.10;0.10;;;6.00;99.90;;;;;;4909916;29;20245;-91
2021/03/22 09:18:01;;;;;;;0.30;0.30;;;6.00;99.90;;;;;;4912699;29;20225;-88
2021/03/22 09:20:55;;;;;;;0.20;0.20;;;6.00;99.90;;;;;;4913142;29;20245;-88
2021/03/22 09:23:44;;;;;;;0.10;0.10;;;6.00;99.90;;;;;;4911442;29;20210;-88
2021/03/22 09:26:16;;;;;;;0.60;0.30;;;6.00;99.90;;;;;;4908090;29;20217;-91
2021/03/22 09:28:54;;;;;;;0.40;0.20;;;6.00;99.90;;;;;;4902666;29;20270;-92
2021/03/22 09:31:50;;;;;;;0.50;0.20;;;6.10;99.90;;;;;;4902742;29;20217;-90
2021/03/22 09:34:42;;;;;;;0.10;0.10;;;6.00;99.90;;;;;;4901595;29;20240;-92
2021/03/22 09:37:49;;;;;;;0.40;0.30;;;6.00;99.90;;;;;;4902338;29;20655;-92
2021/03/22 09:40:51;;;;;;;0.33;0.10;;;6.00;99.90;;;;;;4914770;29;20210;-93
2021/03/22 09:43:40;;;;;;;0.10;0.10;;;6.10;99.90;;;;;;4921063;29;20210;-93
2021/03/22 09:46:41;;;;;;;0.77;0.40;;;6.00;99.90;;;;;;4913963;29;20618;-93
2021/03/22 09:49:27;;;;;;;0.10;0.10;;;6.10;99.90;;;;;;4902896;29;20232;-93
2021/03/22 09:52:19;;;;;;;0.10;0.10;;;6.00;99.90;;;;;;4902494;29;20212;-94
2021/03/22 09:54:56;;;;;;;1.13;0.17;;;6.10;99.90;;;;;;4901374;29;20234;-92
2021/03/22 09:57:47;;;;;;;0.10;0.10;;;6.00;99.90;;;;;;4903542;29;20209;-91
2021/03/22 10:00:31;;;;;;;1.80;0.20;;;6.00;99.90;;;;;;4901679;29;20718;-93
2021/03/22 10:03:03;;;;;;;0.20;0.10;;;6.00;99.90;;;;;;4901246;29;20209;-90
2021/03/22 10:05:59;;;;;;;1.13;0.50;;;6.00;99.90;;;;;;4900859;29;20209;-91
2021/03/22 10:08:33;;;;;;;0.10;0.10;;;6.00;99.90;;;;;;4900269;29;20221;-92
2021/03/22 10:11:09;;;;;;;0.20;0.20;;;6.00;99.90;;;;;;4905597;29;20299;-92
2021/03/22 10:13:45;;;;;;;1.43;0.20;;;6.00;99.90;;;;;;4919911;29;20266;-91
2021/03/22 10:16:24;;;;;;;0.10;0.10;;;6.00;99.90;;;;;;4921215;29;20272;-90
2021/03/22 10:19:00;;;;;;;0.20;0.20;;;6.00;99.90;;;;;;4922987;29;20209;-90
2021/03/22 10:21:34;;;;;;;0.47;0.20;;;6.00;99.90;;;;;;4923590;29;20272;-91
2021/03/22 10:24:18;;;;;;;1.60;0.20;;;6.00;99.90;;;;;;4925062;29;20255;-91
2021/03/22 10:26:53;;;;;;;0.20;0.20;;;6.00;99.90;;;;;;4928247;29;20252;-92
2021/03/22 10:29:31;;;;;;;0.33;0.23;;;5.90;99.90;;;;;;4927752;29;20216;-92
2021/03/22 10:32:07;;;;;;;0.20;0.20;;;6.00;99.90;;;;;;4912480;29;20300;-93
2021/03/22 10:34:46;;;;;;;0.20;0.20;;;5.90;99.90;;;;;;4905296;29;20231;-92
2021/03/22 10:37:24;;;;;;;0.30;0.30;;;5.80;99.90;;;;;;4904462;29;20217;-91
2021/03/22 10:40:02;;;;;;;0.30;0.20;;;5.80;99.90;;;;;;4901663;29;20205;-93
2021/03/22 10:42:47;;;;;;;0.83;0.33;;;5.80;99.90;;;;;;4908784;29;20245;-93
2021/03/22 10:45:42;;;;;;;0.50;0.20;;;5.70;99.90;;;;;;4894591;29;20218;-92
2021/03/22 10:48:31;;;;;;;0.30;0.30;;;5.70;99.90;;;;;;4907360;29;20218;-92
2021/03/22 10:51:11;;;;;;;0.30;0.30;;;5.70;99.90;;;;;;4901316;29;20265;-92
2021/03/22 10:53:57;;;;;;;0.50;0.27;;;5.70;99.90;;;;;;4901162;29;20606;-93
2021/03/22 10:56:34;;;;;;;0.40;0.37;;;5.60;99.90;;;;;;4900909;29;20217;-92
2021/03/22 10:59:12;;;;;;;0.70;0.40;;;5.60;99.90;;;;;;4900080;29;20300;-93
2021/03/22 11:01:43;;;;;;;1.27;0.50;;;5.60;99.90;;;;;;4901590;29;20217;-93
2021/03/22 11:04:20;;;;;;;1.80;0.40;;;5.50;99.90;;;;;;4904188;29;20312;-92
2021/03/22 11:06:52;;;;;;;2.10;0.40;;;5.60;99.90;;;;;;4903921;29;20356;-92
2021/03/22 11:09:27;;;;;;;0.70;0.50;;;5.60;99.90;;;;;;4902662;29;20265;-91
2021/03/22 11:12:00;;;;;;;2.27;0.40;;;5.60;99.90;;;;;;4905758;29;20229;-90
2021/03/22 11:14:35;;;;;;;0.50;0.30;;;5.50;99.90;;;;;;4903598;29;20269;-91
2021/03/22 11:17:14;;;;;;;0.40;0.40;;;5.50;99.90;;;;;;4905792;29;20233;-91
2021/03/22 11:19:46;;;;;;;0.30;0.30;;;5.60;99.90;;;;;;4903198;29;20209;-92
2021/03/22 11:22:29;;;;;;;0.30;0.30;;;5.50;99.90;;;;;;4905827;29;20266;-92
2021/03/22 11:25:00;;;;;;;2.10;0.50;;;5.50;99.90;;;;;;4906801;29;20221;-91
2021/03/22 11:27:56;;;;;;;2.20;0.40;;;5.50;99.90;;;;;;4904118;29;20620;-92
2021/03/22 11:30:39;;;;;;;0.80;0.20;;;5.60;99.90;;;;;;4904001;29;20266;-92
2021/03/22 11:33:17;;;;;;;2.40;0.60;;;5.60;99.90;;;;;;4901913;29;20249;-91
2021/03/22 11:35:49;;;;;;;0.40;0.40;;;5.60;99.90;;;;;;4904555;29;20236;-92
2021/03/22 11:38:32;;;;;;;2.67;0.73;;;5.60;99.90;;;;;;4903979;29;20242;-92
2021/03/22 11:41:07;;;;;;;1.37;0.93;;;5.60;99.90;;;;;;4903913;29;20611;-92
2021/03/22 11:43:40;;;;;;;4.37;0.90;;;5.60;99.90;;;;;;4907190;29;20624;-92
2021/03/22 11:46:24;;;;;;;7.27;1.40;;;5.60;99.90;;;;;;4909919;29;20266;-91
2021/03/22 11:48:57;;;;;;;3.10;1.47;;;5.60;99.90;;;;;;4909197;29;20332;-92
2021/03/22 11:51:29;;;;;;;2.20;1.73;;;5.60;99.90;;;;;;4910683;29;20209;-92
2021/03/22 11:54:12;;;;;;;3.03;1.73;;;5.60;99.90;;;;;;4917895;29;20297;-92
2021/03/22 11:56:55;;;;;;;5.40;1.57;;;5.60;99.90;;;;;;4922366;29;20209;-92
2021/03/22 11:59:28;;;;;;;4.27;1.20;;;5.60;99.90;;;;;;4918110;29;20213;-92
2021/03/22 12:02:21;;;;;;;2.60;0.80;;;5.60;99.90;;;;;;4910009;29;20281;-90
2021/03/22 12:04:59;;;;;;;2.43;0.60;;;5.60;99.90;;;;;;4916889;29;20667;-88
2021/03/22 12:07:41;;;;;;;4.23;0.83;;;5.60;99.90;;;;;;4919895;29;20205;-89
2021/03/22 12:10:20;;;;;;;10.60;1.17;;;5.50;99.90;;;;;;4936012;29;20227;-90
2021/03/22 12:12:51;;;;;;;5.80;0.90;;;5.50;99.90;;;;;;4933312;29;20651;-90
2021/03/22 12:15:23;;;;;;;2.80;1.00;;;5.50;99.90;;;;;;4927517;29;20213;-91
2021/03/22 12:18:02;;;;;;;8.40;0.80;;;5.40;99.90;;;;;;4925653;29;20224;-91
2021/03/22 12:20:36;;;;;;;8.47;1.53;;;5.30;99.90;;;;;;4929660;29;20236;-92
2021/03/22 12:23:09;;;;;;;4.83;1.30;;;5.20;99.90;;;;;;4930958;29;20665;-90
2021/03/22 12:25:40;;;;;;;7.10;1.77;;;5.20;99.90;;;;;;4931590;29;20233;-91
2021/03/22 12:28:11;;;;;;;6.90;1.30;;;5.10;99.90;;;;;;4929658;29;20228;-91
2021/03/22 12:30:41;;;;;;;6.07;1.33;;;5.10;99.90;;;;;;4918923;29;20699;-93
2021/03/22 12:33:24;;;;;;;4.80;1.40;;;5.00;99.90;;;;;;4903218;29;20328;-92
2021/03/22 12:35:55;;;;;;;6.30;1.57;;;5.00;99.90;;;;;;4902784;29;20210;-93
2021/03/22 12:38:25;;;;;;;9.37;1.77;;;5.00;99.90;;;;;;4901557;29;20243;-92
2021/03/22 12:40:57;;;;;;;9.43;1.30;;;5.00;99.90;;;;;;4902607;29;20220;-90
2021/03/22 12:43:31;;;;;;;7.53;1.77;;;5.00;99.90;;;;;;4906305;29;20214;-92
2021/03/22 12:46:02;;;;;;;10.10;1.13;;;5.00;99.90;;;;;;4904726;29;20221;-93
2021/03/22 12:48:34;;;;;;;7.50;1.10;;;5.10;99.90;;;;;;4899853;29;20257;-92
2021/03/22 12:51:06;;;;;;;5.90;1.43;;;5.00;99.90;;;;;;4904643;29;20646;-92
2021/03/22 12:53:37;;;;;;;5.57;1.23;;;5.10;99.90;;;;;;4904284;29;20309;-93
2021/03/22 12:56:07;;;;;;;5.67;1.10;;;5.10;99.90;;;;;;4905543;29;20209;-93
2021/03/22 12:58:38;;;;;;;4.23;1.60;;;5.10;99.90;;;;;;4921166;28;20215;-93
2021/03/22 13:01:11;;;;;;;7.97;1.70;;;5.10;99.90;;;;;;4922183;29;20190;-93
2021/03/22 13:03:43;;;;;;;8.20;1.23;;;5.10;99.90;;;;;;4921730;29;20209;-92
2021/03/22 13:06:14;;;;;;;7.37;1.50;;;5.10;99.90;;;;;;4920539;29;20208;-91
2021/03/22 13:08:45;;;;;;;6.80;1.47;;;5.20;99.90;;;;;;4918448;29;20225;-91
2021/03/22 13:11:23;;;;;;;9.73;1.37;;;5.20;99.90;;;;;;4920349;29;20226;-93
2021/03/22 13:13:53;;;;;;;4.13;1.40;;;5.20;99.90;;;;;;4910605;29;20248;-93
2021/03/22 13:16:24;;;;;;;8.03;1.50;;;5.10;99.90;;;;;;4902334;29;20217;-92
2021/03/22 13:18:56;;;;;;;6.73;1.43;;;5.10;99.90;;;;;;4900431;29;20248;-92
2021/03/22 13:21:29;;;;;;;7.20;1.33;;;5.10;99.90;;;;;;4902909;29;20320;-92
2021/03/22 13:24:00;;;;;;;8.00;1.57;;;5.10;99.90;;;;;;4902391;29;20655;-92
2021/03/22 13:26:34;;;;;;;6.43;1.37;;;5.10;99.90;;;;;;4902545;29;20232;-92
2021/03/22 13:29:04;;;;;;;3.87;1.40;;;5.10;99.90;;;;;;4901962;29;20213;-92
2021/03/22 13:31:36;;;;;;;5.90;1.37;;;5.10;99.90;;;;;;4905790;29;20621;-91
2021/03/22 13:34:14;;;;;;;4.23;1.47;;;5.10;99.90;;;;;;4912689;29;20241;-89
2021/03/22 13:36:45;;;;;;;5.60;1.13;;;5.10;99.90;;;;;;4911521;29;20296;-90
2021/03/22 13:39:19;;;;;;;5.87;1.33;;;5.10;99.90;;;;;;4903193;29;20217;-92
2021/03/22 13:41:50;;;;;;;5.90;1.53;;;5.10;99.90;;;;;;4899953;29;20227;-92
2021/03/22 13:44:21;;;;;;;8.00;1.50;;;5.00;99.90;;;;;;4901111;29;20236;-93
2021/03/22 13:46:52;;;;;;;7.57;2.10;;;5.10;99.90;;;;;;4901101;29;20262;-92
2021/03/22 13:49:25;;;;;;;8.43;1.70;;;5.10;99.90;;;;;;4901105;29;20213;-92
2021/03/22 13:52:03;;;;;;;11.23;2.03;;;5.00;99.90;;;;;;4900990;29;20214;-93
2021/03/22 13:54:34;;;;;;;6.80;1.33;;;5.00;99.90;;;;;;4906455;29;20399;-93
2021/03/22 13:57:07;;;;;;;5.47;1.60;;;5.00;99.90;;;;;;4901538;29;20228;-93
2021/03/22 13:59:38;;;;;;;5.47;1.30;;;5.10;99.90;;;;;;4899448;29;20643;-92
2021/03/22 14:02:12;;;;;;;6.40;1.63;;;5.00;99.90;;;;;;4906505;29;20260;-93
2021/03/22 14:04:56;;;;;;;7.97;1.90;;;5.00;99.90;;;;;;4919680;29;20208;-92
2021/03/22 14:07:31;;;;;;;8.57;1.70;;;5.00;99.90;;;;;;4924277;29;20249;-93
2021/03/22 14:10:06;;;;;;;4.30;1.50;;;5.00;99.90;;;;;;4923455;29;20231;-93
2021/03/22 14:12:38;;;;;;;5.93;1.70;;;5.00;99.90;;;;;;4937640;29;20212;-94
2021/03/22 14:15:12;;;;;;;5.77;1.43;;;5.00;99.90;;;;;;4937016;29;20220;-93
2021/03/22 14:17:43;;;;;;;6.57;1.47;;;5.00;99.90;;;;;;4935190;29;20201;-93
2021/03/22 14:20:18;;;;;;;5.57;1.70;;;5.00;99.90;;;;;;4924503;29;20657;-90
2021/03/22 14:22:57;;;;;;;3.00;1.50;;;5.10;99.90;;;;;;4928613;29;20216;-91
2021/03/22 14:25:29;;;;;;;4.33;1.60;;;5.10;99.90;;;;;;4927789;29;20213;-91
2021/03/22 14:28:00;;;;;;;5.53;1.47;;;5.10;99.90;;;;;;4915381;29;20198;-93
2021/03/22 14:30:35;;;;;;;8.20;1.43;;;5.10;99.90;;;;;;4899351;29;20214;-92
2021/03/22 14:33:08;;;;;;;2.67;1.23;;;5.10;99.90;;;;;;4901569;29;20233;-92
2021/03/22 14:35:42;;;;;;;6.67;1.30;;;5.20;99.90;;;;;;4901503;29;20262;-91
2021/03/22 14:38:17;;;;;;;7.23;2.17;;;5.20;99.90;;;;;;4903915;29;20312;-92
2021/03/22 14:40:48;;;;;;;4.17;2.23;;;5.20;99.90;;;;;;4911108;29;20233;-91
2021/03/22 14:43:19;;;;;;;4.97;1.50;;;5.20;99.90;;;;;;4904439;29;20674;-92
2021/03/22 14:45:50;;;;;;;5.37;1.77;;;5.20;99.90;;;;;;4906744;29;20345;-92
2021/03/22 14:48:23;;;;;;;4.17;2.17;;;5.10;99.90;;;;;;4907821;29;20689;-91
2021/03/22 14:50:57;;;;;;;3.20;1.40;;;5.00;99.90;;;;;;4909554;29;20220;-92
2021/03/22 14:53:27;;;;;;;3.43;1.33;;;4.90;99.90;;;;;;4912507;29;20659;-90
2021/03/22 14:55:58;;;;;;;2.70;1.10;;;4.70;99.90;;;;;;4913793;29;20213;-92
2021/03/22 14:58:29;;;;;;;3.27;1.30;;;4.70;99.90;;;;;;4913232;29;20758;-90
2021/03/22 15:01:01;;;;;;;3.70;1.20;;;4.80;99.90;;;;;;4913481;29;20214;-92
2021/03/22 15:03:33;;;;;;;5.17;1.53;;;4.60;99.90;;;;;;4917339;29;20205;-90
2021/03/22 15:06:05;;;;;;;4.17;1.17;;;4.50;99.90;;;;;;4909489;29;20241;-95
2021/03/22 15:08:36;;;;;;;4.53;1.33;;;4.60;99.90;;;;;;4905618;29;20205;-93
2021/03/22 15:11:11;;;;;;;3.50;1.30;;;4.70;99.90;;;;;;4907320;29;20846;-92
2021/03/22 15:13:42;;;;;;;2.30;1.37;;;4.70;99.90;;;;;;4904501;29;20234;-92
2021/03/22 15:16:13;;;;;;;2.00;1.00;;;4.70;99.90;;;;;;4906021;29;20210;-93
2021/03/22 15:18:44;;;;;;;3.57;1.03;;;4.80;99.90;;;;;;4888813;29;20217;-92
2021/03/22 15:21:16;;;;;;;3.53;1.00;;;4.80;99.90;;;;;;4889817;29;20222;-92
2021/03/22 15:23:47;;;;;;;2.50;1.00;;;4.60;99.90;;;;;;4888647;29;20207;-92
2021/03/22 15:26:18;;;;;;;6.47;1.33;;;4.70;99.90;;;;;;4885759;29;20245;-92
2021/03/22 15:28:49;;;;;;;3.07;1.23;;;4.70;99.90;;;;;;4885062;29;20252;-91
2021/03/22 15:31:22;;;;;;;1.40;0.80;;;4.70;99.90;;;;;;4885163;29;20214;-93
2021/03/22 15:33:57;;;;;;;2.77;1.10;;;4.70;99.90;;;;;;4885127;29;20241;-93
2021/03/22 15:36:31;;;;;;;3.23;0.80;;;4.70;99.90;;;;;;4870166;29;20210;-93
2021/03/22 15:39:02;;;;;;;1.63;0.87;;;4.90;99.90;;;;;;4884490;29;20214;-91
2021/03/22 15:41:35;;;;;;;4.33;1.50;;;4.80;99.90;;;;;;4885170;29;20310;-93
2021/03/22 15:44:07;;;;;;;2.17;1.00;;;4.70;99.90;;;;;;4885902;29;20293;-92
2021/03/22 15:46:38;;;;;;;4.77;1.07;;;4.80;99.90;;;;;;4885753;29;20214;-93
2021/03/22 15:49:09;;;;;;;2.23;1.03;;;4.80;99.90;;;;;;4884984;29;20214;-93
2021/03/22 15:51:43;;;;;;;4.60;1.20;;;4.80;99.90;;;;;;4885231;29;20391;-92
2021/03/22 15:54:14;;;;;;;2.60;1.13;;;5.00;99.90;;;;;;4884757;29;20294;-93
2021/03/22 15:56:45;;;;;;;1.30;0.90;;;4.90;99.90;;;;;;4890553;29;20542;-94
2021/03/22 15:59:16;;;;;;;4.27;1.10;;;4.90;99.90;;;;;;4904161;29;20547;-92
2021/03/22 16:01:49;;;;;;;3.13;1.10;;;4.90;99.90;;;;;;4902991;29;20213;-91
2021/03/22 16:04:22;;;;;;;1.47;0.90;;;4.90;99.90;;;;;;4903750;29;20553;-93
2021/03/22 16:06:55;;;;;;;3.40;1.10;;;4.90;99.90;;;;;;4903622;29;20218;-94
2021/03/22 16:09:26;;;;;;;3.83;1.10;;;4.90;99.90;;;;;;4901871;29;20213;-94
2021/03/22 16:11:58;;;;;;;2.87;1.13;;;5.10;99.90;;;;;;4903187;29;20273;-92
2021/03/22 16:14:30;;;;;;;5.03;1.40;;;5.20;99.90;;;;;;4904423;29;20651;-92
2021/03/22 16:17:02;;;;;;;2.73;1.10;;;5.10;99.90;;;;;;4904919;29;20214;-93